Time;durP1;ratioP1;P1;durP2;ratioP2;P2;SDS_P1;SDS_P2;PMS_P1;PMS_P2;Temp;Humidity;BMP_temperature;BMP_pressure;BME280_temperature;BME280_humidity;BME280_pressure;Samples;Min_cycle;Max_cycle;Signal;HPM_P1;HPM_P2
2023/12/16 00:00:02;;;;;;;15.65;3.80;;;6.00;99.90;;;;;;6190120;23;20092;-73
2023/12/16 00:02:28;;;;;;;12.18;4.03;;;6.00;99.90;;;;;;6190171;23;20050;-73
2023/12/16 00:04:54;;;;;;;17.00;3.85;;;6.00;99.90;;;;;;6190227;23;20063;-73
2023/12/16 00:07:19;;;;;;;12.32;3.58;;;5.90;99.90;;;;;;6189864;23;20054;-73
2023/12/16 00:09:45;;;;;;;15.75;4.05;;;6.00;99.90;;;;;;6190145;23;20021;-73
2023/12/16 00:12:14;;;;;;;13.93;3.88;;;6.00;99.90;;;;;;6189992;23;20021;-73
2023/12/16 00:14:40;;;;;;;9.32;3.40;;;6.00;99.90;;;;;;6190072;23;20050;-73
2023/12/16 00:17:06;;;;;;;11.00;4.43;;;6.00;99.90;;;;;;6189938;23;20025;-73
2023/12/16 00:19:31;;;;;;;18.25;4.40;;;6.00;99.90;;;;;;6187444;23;20071;-73
2023/12/16 00:22:29;;;;;;;12.13;4.22;;;6.00;99.90;;;;;;6216787;23;20043;-73
2023/12/16 00:24:55;;;;;;;7.50;3.03;;;6.00;99.90;;;;;;6216942;23;20012;-73
2023/12/16 00:27:21;;;;;;;9.52;3.78;;;6.00;99.90;;;;;;6189936;23;20079;-73
2023/12/16 00:29:46;;;;;;;9.85;4.05;;;6.00;99.90;;;;;;6216522;23;20059;-73
2023/12/16 00:32:12;;;;;;;13.32;3.47;;;6.00;99.90;;;;;;6189954;23;20441;-73
2023/12/16 00:34:38;;;;;;;13.45;4.10;;;5.90;99.90;;;;;;6189908;23;20340;-73
2023/12/16 00:37:05;;;;;;;10.50;3.47;;;5.90;99.90;;;;;;6189746;23;20016;-73
2023/12/16 00:39:35;;;;;;;9.80;3.20;;;5.90;99.90;;;;;;6189689;23;20016;-73
2023/12/16 00:42:18;;;;;;;11.15;3.63;;;5.90;99.90;;;;;;6216041;23;20052;-72
2023/12/16 00:44:44;;;;;;;15.30;3.80;;;5.90;99.90;;;;;;6189796;23;20020;-73
2023/12/16 00:47:09;;;;;;;10.27;3.42;;;5.90;99.90;;;;;;6216480;23;20067;-73
2023/12/16 00:52:03;;;;;;;8.15;3.17;;;5.80;99.90;;;;;;6214525;23;20013;-73
2023/12/16 00:54:31;;;;;;;10.88;3.30;;;5.80;99.90;;;;;;6189665;23;20021;-73
2023/12/16 00:56:56;;;;;;;7.25;3.15;;;5.80;99.90;;;;;;6189426;23;20020;-73
2023/12/16 00:59:23;;;;;;;12.75;3.33;;;5.80;99.90;;;;;;6216463;23;20066;-73
2023/12/16 01:01:49;;;;;;;10.60;3.20;;;5.80;99.90;;;;;;6186680;23;20100;-73
2023/12/16 01:04:16;;;;;;;16.35;4.60;;;5.80;99.90;;;;;;6190211;23;20048;-73
2023/12/16 01:06:42;;;;;;;10.20;3.60;;;5.70;99.90;;;;;;6189541;23;20012;-73
2023/12/16 01:09:08;;;;;;;14.10;4.03;;;5.70;99.90;;;;;;6189587;23;20071;-73
2023/12/16 01:11:33;;;;;;;8.95;3.95;;;5.70;99.90;;;;;;6189653;23;20055;-73
2023/12/16 01:13:59;;;;;;;11.98;3.35;;;5.70;99.90;;;;;;6189595;23;20519;-73
2023/12/16 01:16:24;;;;;;;9.98;4.20;;;5.70;99.90;;;;;;6216339;23;20092;-73
2023/12/16 01:18:53;;;;;;;8.15;3.45;;;5.70;99.90;;;;;;6189513;23;20021;-73
2023/12/16 01:21:19;;;;;;;12.90;4.07;;;5.70;99.90;;;;;;6189370;23;20031;-73
2023/12/16 01:23:45;;;;;;;10.05;3.90;;;5.70;99.90;;;;;;6189815;23;20425;-73
2023/12/16 01:26:11;;;;;;;10.68;4.05;;;5.60;99.90;;;;;;6189468;23;20023;-73
2023/12/16 01:28:37;;;;;;;10.70;3.85;;;5.70;99.90;;;;;;6189336;23;20021;-73
2023/12/16 01:31:06;;;;;;;15.10;4.38;;;5.60;99.90;;;;;;6189828;23;20013;-73
2023/12/16 01:33:31;;;;;;;11.02;3.50;;;5.70;99.90;;;;;;6189276;23;20021;-73
2023/12/16 01:35:57;;;;;;;13.27;3.05;;;5.70;99.90;;;;;;6189314;23;20104;-73
2023/12/16 01:38:23;;;;;;;11.18;3.10;;;5.70;99.90;;;;;;6189395;23;20017;-73
2023/12/16 01:40:49;;;;;;;9.52;3.30;;;5.70;99.90;;;;;;6189304;23;20063;-73
2023/12/16 01:43:14;;;;;;;14.13;3.50;;;5.70;99.90;;;;;;6216268;23;20013;-73
2023/12/16 01:45:40;;;;;;;13.48;3.45;;;5.70;99.90;;;;;;6189279;23;20128;-73
2023/12/16 01:48:07;;;;;;;12.02;2.90;;;5.70;99.90;;;;;;6189297;23;20016;-73
2023/12/16 01:50:36;;;;;;;8.50;3.33;;;5.70;99.90;;;;;;6216341;23;20023;-73
2023/12/16 01:53:04;;;;;;;16.45;3.00;;;5.80;99.90;;;;;;6189359;23;20013;-73
2023/12/16 01:55:31;;;;;;;9.80;2.78;;;5.70;99.90;;;;;;6189232;23;20020;-72
2023/12/16 01:57:57;;;;;;;9.88;2.80;;;5.80;99.90;;;;;;6189280;23;20031;-73
2023/12/16 02:00:24;;;;;;;8.35;2.92;;;5.80;99.90;;;;;;6189319;23;20088;-73
2023/12/16 02:02:50;;;;;;;14.98;4.28;;;5.80;99.90;;;;;;6189091;23;20016;-73
2023/12/16 02:05:19;;;;;;;14.77;3.08;;;5.80;99.90;;;;;;6216100;23;20028;-73
2023/12/16 02:07:44;;;;;;;8.07;2.47;;;5.80;99.90;;;;;;6190021;23;20036;-73
2023/12/16 02:10:10;;;;;;;11.38;4.57;;;5.80;99.90;;;;;;6191154;23;20356;-73
2023/12/16 02:12:39;;;;;;;8.98;2.45;;;5.80;99.90;;;;;;6191236;23;20028;-73
2023/12/16 02:15:05;;;;;;;7.25;2.17;;;5.80;99.90;;;;;;6191444;23;20020;-73
2023/12/16 02:17:31;;;;;;;9.25;2.80;;;5.80;99.90;;;;;;6190814;23;20029;-73
2023/12/16 02:19:56;;;;;;;11.80;2.65;;;5.80;99.90;;;;;;6191115;23;20016;-73
2023/12/16 02:22:22;;;;;;;17.15;3.13;;;5.80;99.90;;;;;;6191080;23;20016;-73
2023/12/16 02:24:49;;;;;;;14.75;2.75;;;5.80;99.90;;;;;;6190959;23;20440;-73
2023/12/16 02:27:18;;;;;;;15.55;2.67;;;5.70;99.90;;;;;;6217939;23;20016;-73
2023/12/16 02:29:43;;;;;;;10.98;2.75;;;5.80;99.90;;;;;;6191044;23;20016;-73
2023/12/16 02:32:10;;;;;;;19.70;4.28;;;5.70;99.90;;;;;;6191050;23;20103;-73
2023/12/16 02:34:35;;;;;;;10.95;2.67;;;5.70;99.90;;;;;;6217968;23;20020;-73
2023/12/16 02:37:05;;;;;;;7.88;2.45;;;5.70;99.90;;;;;;6190909;23;20025;-73
2023/12/16 02:39:32;;;;;;;10.45;3.17;;;5.70;99.90;;;;;;6217634;23;20020;-73
2023/12/16 02:41:58;;;;;;;9.75;2.35;;;5.70;99.90;;;;;;6190995;23;20072;-73
2023/12/16 02:44:24;;;;;;;13.20;3.20;;;5.60;99.90;;;;;;6190915;23;20407;-73
2023/12/16 02:46:50;;;;;;;9.82;2.92;;;5.60;99.90;;;;;;6190856;23;20384;-73
2023/12/16 02:49:15;;;;;;;6.82;2.13;;;5.60;99.90;;;;;;6217801;23;20445;-73
2023/12/16 02:51:41;;;;;;;10.00;2.42;;;5.60;99.90;;;;;;6190738;23;20016;-73
2023/12/16 02:56:32;;;;;;;9.15;2.65;;;5.60;99.90;;;;;;6213477;22;20103;-73
2023/12/16 02:58:57;;;;;;;13.80;2.60;;;5.50;99.90;;;;;;6215798;23;20021;-73
2023/12/16 03:01:23;;;;;;;11.25;2.55;;;5.50;99.90;;;;;;6188890;23;20027;-73
2023/12/16 03:03:49;;;;;;;12.13;2.17;;;5.50;99.90;;;;;;6189078;23;20024;-73
2023/12/16 03:06:14;;;;;;;13.13;2.90;;;5.50;99.90;;;;;;6188981;23;20047;-73
2023/12/16 03:08:40;;;;;;;12.25;2.95;;;5.50;99.90;;;;;;6188894;23;20337;-73
2023/12/16 03:11:05;;;;;;;13.65;2.17;;;5.50;99.90;;;;;;6188973;23;20021;-73
2023/12/16 03:13:31;;;;;;;12.68;2.63;;;5.50;99.90;;;;;;6215800;23;20075;-73
2023/12/16 03:15:57;;;;;;;8.45;2.20;;;5.50;99.90;;;;;;6215697;23;20059;-73
2023/12/16 03:18:23;;;;;;;11.18;2.38;;;5.50;99.90;;;;;;6188851;23;20100;-73
2023/12/16 03:20:51;;;;;;;6.80;2.30;;;5.40;99.90;;;;;;6188390;23;20064;-73
2023/12/16 03:23:17;;;;;;;9.45;2.75;;;5.40;99.90;;;;;;6188994;23;20025;-73
2023/12/16 03:25:45;;;;;;;10.07;2.60;;;5.40;99.90;;;;;;6188916;23;20475;-73
2023/12/16 03:28:14;;;;;;;16.40;3.13;;;5.40;99.90;;;;;;6188852;23;20048;-73
2023/12/16 03:30:40;;;;;;;10.75;2.80;;;5.40;99.90;;;;;;6188868;23;20449;-73
2023/12/16 03:33:08;;;;;;;10.63;3.08;;;5.40;99.90;;;;;;6188910;23;20020;-73
2023/12/16 03:35:37;;;;;;;13.80;2.80;;;5.40;99.90;;;;;;6188958;23;20020;-73
2023/12/16 03:38:05;;;;;;;10.23;3.20;;;5.40;99.90;;;;;;6188715;23;20020;-73
2023/12/16 03:40:31;;;;;;;20.60;3.35;;;5.40;99.90;;;;;;6188818;23;20019;-73
2023/12/16 03:42:57;;;;;;;11.57;3.33;;;5.40;99.90;;;;;;6188658;23;20031;-73
2023/12/16 03:45:23;;;;;;;14.70;3.00;;;5.40;99.90;;;;;;6188852;23;20337;-73
2023/12/16 03:47:49;;;;;;;15.07;2.72;;;5.40;99.90;;;;;;6188850;23;20144;-73
2023/12/16 03:50:14;;;;;;;15.00;2.67;;;5.40;99.90;;;;;;6188765;23;20063;-73
2023/12/16 03:52:40;;;;;;;15.00;3.05;;;5.40;99.90;;;;;;6188750;23;20016;-73
2023/12/16 03:55:06;;;;;;;12.27;3.05;;;5.40;99.90;;;;;;6121184;23;2000729;-73
2023/12/16 03:57:33;;;;;;;11.23;3.10;;;5.40;99.90;;;;;;6247389;22;20016;-73
2023/12/16 04:00:05;;;;;;;15.95;4.65;;;5.40;99.90;;;;;;6245711;23;20020;-73
2023/12/16 04:02:30;;;;;;;12.48;3.13;;;5.40;99.90;;;;;;6245723;23;20042;-73
2023/12/16 04:04:56;;;;;;;15.02;3.05;;;5.40;99.90;;;;;;6246894;23;20393;-73
2023/12/16 04:07:22;;;;;;;15.20;3.35;;;5.40;99.90;;;;;;6245579;23;20055;-73
2023/12/16 04:09:48;;;;;;;16.55;3.63;;;5.40;99.90;;;;;;6245535;23;20046;-73
2023/12/16 04:12:14;;;;;;;16.17;3.20;;;5.40;99.90;;;;;;6245563;23;20444;-73
2023/12/16 04:14:40;;;;;;;16.45;3.30;;;5.40;99.90;;;;;;6245554;23;20018;-73
2023/12/16 04:17:06;;;;;;;12.50;3.42;;;5.40;99.90;;;;;;6245201;23;20086;-73
2023/12/16 04:19:32;;;;;;;14.73;3.17;;;5.30;99.90;;;;;;6245328;23;20336;-73
2023/12/16 04:21:57;;;;;;;18.08;3.35;;;5.40;99.90;;;;;;6245312;23;20008;-73
2023/12/16 04:24:23;;;;;;;13.20;3.33;;;5.40;99.90;;;;;;6245225;23;20467;-73
2023/12/16 04:26:49;;;;;;;16.20;3.38;;;5.40;99.90;;;;;;6247235;23;20019;-73
2023/12/16 04:29:15;;;;;;;13.00;3.40;;;5.40;99.90;;;;;;6245397;23;20016;-73
2023/12/16 04:31:45;;;;;;;16.75;3.53;;;5.40;99.90;;;;;;6245245;23;20027;-73
2023/12/16 04:34:10;;;;;;;17.50;3.83;;;5.40;99.90;;;;;;6245284;23;20440;-73
2023/12/16 04:36:36;;;;;;;18.40;3.78;;;5.40;99.90;;;;;;6245089;23;20088;-73
2023/12/16 04:39:07;;;;;;;14.95;3.03;;;5.40;99.90;;;;;;6245348;23;20043;-73
2023/12/16 04:41:33;;;;;;;15.85;4.20;;;5.40;99.90;;;;;;6245201;23;20337;-73
2023/12/16 04:44:01;;;;;;;18.48;4.90;;;5.40;99.90;;;;;;6245279;23;20057;-73
2023/12/16 04:46:27;;;;;;;21.88;3.92;;;5.50;99.90;;;;;;6244631;23;20444;-73
2023/12/16 04:48:54;;;;;;;19.17;4.20;;;5.50;99.90;;;;;;6245089;23;20047;-73
2023/12/16 04:51:20;;;;;;;18.25;3.83;;;5.50;99.90;;;;;;6247063;22;20027;-73
2023/12/16 04:53:45;;;;;;;18.65;4.60;;;5.50;99.90;;;;;;6245084;23;20478;-73
2023/12/16 04:56:12;;;;;;;15.48;3.42;;;5.60;99.90;;;;;;6244772;23;20087;-73
2023/12/16 04:58:41;;;;;;;15.80;3.88;;;5.60;99.90;;;;;;6244977;23;20020;-73
2023/12/16 05:01:06;;;;;;;15.93;4.25;;;5.60;99.90;;;;;;6245074;23;20091;-73
2023/12/16 05:03:32;;;;;;;18.52;3.92;;;5.60;99.90;;;;;;6246390;23;20035;-73
2023/12/16 05:05:58;;;;;;;25.25;4.30;;;5.60;99.90;;;;;;6244824;23;20020;-73
2023/12/16 05:08:24;;;;;;;16.17;3.97;;;5.60;99.90;;;;;;6245036;23;20039;-73
2023/12/16 05:10:52;;;;;;;15.55;3.97;;;5.70;99.90;;;;;;6244878;23;20106;-73
2023/12/16 05:13:18;;;;;;;21.13;3.70;;;5.60;99.90;;;;;;6246288;23;20325;-73
2023/12/16 05:15:44;;;;;;;18.67;4.07;;;5.70;99.90;;;;;;6244963;23;20066;-73
2023/12/16 05:18:09;;;;;;;22.67;4.22;;;5.70;99.90;;;;;;6244593;23;20016;-73
2023/12/16 05:20:35;;;;;;;16.10;4.03;;;5.70;99.90;;;;;;6245475;23;20012;-73
2023/12/16 05:23:03;;;;;;;16.05;4.47;;;5.70;99.90;;;;;;6244874;23;20024;-73
2023/12/16 05:25:30;;;;;;;18.20;4.88;;;5.80;99.90;;;;;;6245720;23;20023;-73
2023/12/16 05:27:56;;;;;;;19.13;4.25;;;5.80;99.90;;;;;;6244934;23;20054;-73
2023/12/16 05:30:22;;;;;;;18.33;4.53;;;5.80;99.90;;;;;;6244910;23;20020;-73
2023/12/16 05:32:48;;;;;;;15.38;5.10;;;5.80;99.90;;;;;;6244843;23;20028;-73
2023/12/16 05:35:14;;;;;;;35.45;5.93;;;5.80;99.90;;;;;;6245212;23;20376;-73
2023/12/16 05:37:40;;;;;;;20.48;4.63;;;5.90;99.90;;;;;;6244792;23;20111;-73
2023/12/16 05:40:06;;;;;;;26.58;5.15;;;5.90;99.90;;;;;;6244739;23;20456;-73
2023/12/16 05:42:32;;;;;;;22.20;4.85;;;5.90;99.90;;;;;;6244342;23;20444;-73
2023/12/16 05:44:57;;;;;;;21.30;5.30;;;5.90;99.90;;;;;;6244662;23;20016;-73
2023/12/16 05:47:33;;;;;;;26.58;5.50;;;6.00;99.90;;;;;;6244995;23;20325;-73
2023/12/16 05:49:59;;;;;;;27.40;6.40;;;6.00;99.90;;;;;;6244890;23;20016;-73
2023/12/16 05:52:24;;;;;;;22.98;5.32;;;6.00;99.90;;;;;;6244648;23;20075;-73
2023/12/16 05:54:50;;;;;;;27.10;6.03;;;6.00;99.90;;;;;;6244357;23;20023;-73
2023/12/16 05:57:20;;;;;;;29.23;6.25;;;6.00;99.90;;;;;;6244532;23;20020;-73
2023/12/16 05:59:45;;;;;;;29.23;7.07;;;6.00;99.90;;;;;;6244554;23;20027;-73
2023/12/16 06:02:11;;;;;;;29.40;7.05;;;6.10;99.90;;;;;;6244657;23;20012;-73
2023/12/16 06:04:36;;;;;;;25.98;6.60;;;6.10;99.90;;;;;;6244615;23;20040;-73
2023/12/16 06:07:02;;;;;;;32.55;6.28;;;6.10;99.90;;;;;;6246167;23;20055;-73
2023/12/16 06:09:28;;;;;;;31.67;7.28;;;6.10;99.90;;;;;;6244605;23;20462;-73
2023/12/16 06:11:55;;;;;;;31.08;7.03;;;6.20;99.90;;;;;;6244582;23;20015;-73
2023/12/16 06:14:24;;;;;;;25.00;6.55;;;6.20;99.90;;;;;;6244678;23;20012;-73
2023/12/16 06:16:50;;;;;;;34.28;7.72;;;6.20;99.90;;;;;;6244437;23;20020;-73
2023/12/16 06:19:16;;;;;;;27.50;7.85;;;6.20;99.90;;;;;;6244579;23;20099;-73
2023/12/16 06:21:41;;;;;;;28.70;8.05;;;6.20;99.90;;;;;;6244572;23;20058;-73
2023/12/16 06:24:10;;;;;;;30.42;8.10;;;6.20;99.90;;;;;;6244591;23;20027;-73
2023/12/16 06:26:36;;;;;;;33.47;8.23;;;6.30;99.90;;;;;;6244493;23;20069;-73
2023/12/16 06:29:02;;;;;;;33.83;7.45;;;6.30;99.90;;;;;;6244404;23;20016;-73
2023/12/16 06:31:27;;;;;;;26.00;7.97;;;6.20;99.90;;;;;;6244850;23;20027;-73
2023/12/16 06:33:53;;;;;;;28.70;8.18;;;6.30;99.90;;;;;;6244453;23;20095;-73
2023/12/16 06:36:18;;;;;;;41.00;8.65;;;6.30;99.90;;;;;;6244763;23;20024;-73
2023/12/16 06:38:44;;;;;;;31.25;7.68;;;6.30;99.90;;;;;;6246166;23;20054;-73
2023/12/16 06:41:10;;;;;;;28.70;7.55;;;6.30;99.90;;;;;;6245082;23;20043;-73
2023/12/16 06:43:36;;;;;;;23.65;7.68;;;6.30;99.90;;;;;;6244404;23;20020;-73
2023/12/16 06:46:01;;;;;;;32.70;8.10;;;6.30;99.90;;;;;;6244399;23;20344;-73
2023/12/16 06:48:27;;;;;;;32.45;8.88;;;6.40;99.90;;;;;;6246286;23;20432;-73
2023/12/16 06:50:57;;;;;;;36.97;9.30;;;6.40;99.90;;;;;;6244391;23;20429;-73
2023/12/16 06:53:23;;;;;;;42.35;8.77;;;6.40;99.90;;;;;;6246640;23;20062;-73
2023/12/16 06:55:48;;;;;;;38.47;9.95;;;6.40;99.90;;;;;;6245977;23;20016;-73
2023/12/16 06:58:15;;;;;;;36.50;9.32;;;6.40;99.90;;;;;;6246190;23;20091;-73
2023/12/16 07:00:41;;;;;;;39.53;10.65;;;6.40;99.90;;;;;;6246655;23;20043;-73
2023/12/16 07:03:07;;;;;;;46.92;9.98;;;6.40;99.90;;;;;;6246018;23;20016;-73
2023/12/16 07:05:34;;;;;;;44.17;9.48;;;6.40;99.90;;;;;;6246181;23;20016;-73
2023/12/16 07:08:00;;;;;;;38.00;8.98;;;6.40;99.90;;;;;;6246093;23;20027;-73
2023/12/16 07:10:26;;;;;;;42.40;10.00;;;6.40;99.90;;;;;;6246084;23;20062;-73
2023/12/16 07:12:51;;;;;;;33.00;10.73;;;6.50;99.90;;;;;;6246166;23;20021;-73
2023/12/16 07:15:18;;;;;;;53.65;10.20;;;6.50;99.90;;;;;;6246143;23;20012;-73
2023/12/16 07:17:44;;;;;;;38.15;10.38;;;6.50;99.90;;;;;;6246030;23;20075;-73
2023/12/16 07:20:13;;;;;;;34.72;10.05;;;6.50;99.90;;;;;;6247389;23;20060;-73
2023/12/16 07:22:39;;;;;;;42.92;11.27;;;6.50;99.90;;;;;;6246007;23;20074;-73
2023/12/16 07:25:05;;;;;;;48.53;10.52;;;6.50;99.90;;;;;;6245856;23;20016;-73
2023/12/16 07:27:31;;;;;;;51.72;10.25;;;6.50;99.90;;;;;;6245978;23;20412;-73
2023/12/16 07:29:57;;;;;;;39.75;10.95;;;6.50;99.90;;;;;;6246019;23;20016;-73
2023/12/16 07:32:23;;;;;;;46.50;10.68;;;6.60;99.90;;;;;;6245923;23;20375;-73
2023/12/16 07:34:50;;;;;;;60.80;10.52;;;6.70;99.90;;;;;;6245939;23;20023;-73
2023/12/16 07:37:16;;;;;;;43.60;9.23;;;6.80;99.90;;;;;;6245862;23;20055;-73
2023/12/16 07:39:41;;;;;;;44.47;9.77;;;6.80;99.90;;;;;;6245845;23;20051;-73
2023/12/16 07:42:07;;;;;;;38.15;10.55;;;6.90;99.90;;;;;;6245905;23;20040;-73
2023/12/16 07:44:32;;;;;;;51.20;10.98;;;6.90;99.90;;;;;;6245836;23;20043;-73
2023/12/16 07:46:58;;;;;;;49.13;11.38;;;6.90;99.90;;;;;;6245637;23;20024;-73
2023/12/16 07:49:25;;;;;;;46.08;10.98;;;6.90;99.90;;;;;;6246516;23;20012;-73
2023/12/16 07:51:51;;;;;;;55.95;12.45;;;6.90;99.90;;;;;;6247140;22;20016;-73
2023/12/16 07:54:17;;;;;;;47.58;11.55;;;7.00;99.90;;;;;;6244990;23;20109;-74
2023/12/16 07:56:44;;;;;;;45.92;11.00;;;7.00;99.90;;;;;;6244589;23;20024;-73
2023/12/16 07:59:09;;;;;;;50.38;11.63;;;7.00;99.90;;;;;;6245110;23;20027;-74
2023/12/16 08:01:35;;;;;;;48.08;11.23;;;7.00;99.90;;;;;;6246078;23;20056;-74
2023/12/16 08:04:00;;;;;;;51.50;11.20;;;7.00;99.90;;;;;;6245628;23;20111;-74
2023/12/16 08:06:26;;;;;;;39.80;10.23;;;7.10;99.90;;;;;;6246848;23;20497;-73
2023/12/16 08:08:51;;;;;;;50.10;12.15;;;7.10;99.90;;;;;;6245123;23;20008;-73
2023/12/16 08:11:18;;;;;;;49.45;12.65;;;7.10;99.90;;;;;;6245123;23;20421;-73
2023/12/16 08:13:44;;;;;;;55.33;13.32;;;7.10;99.90;;;;;;6245461;23;20440;-73
2023/12/16 08:16:11;;;;;;;46.88;11.48;;;7.20;99.90;;;;;;6246746;23;20016;-74
2023/12/16 08:18:37;;;;;;;54.33;12.55;;;7.20;99.90;;;;;;6245255;23;20051;-74
2023/12/16 08:21:05;;;;;;;52.47;11.63;;;7.20;99.90;;;;;;6245155;23;20016;-74
2023/12/16 08:23:31;;;;;;;54.28;12.52;;;7.20;99.90;;;;;;6244985;23;20325;-74
2023/12/16 08:25:56;;;;;;;59.42;12.80;;;7.20;99.90;;;;;;6244892;23;20451;-73
2023/12/16 08:28:23;;;;;;;47.85;10.70;;;7.20;99.90;;;;;;6245014;23;20099;-73
2023/12/16 08:30:50;;;;;;;47.17;11.70;;;7.20;99.90;;;;;;6246706;22;20058;-73
2023/12/16 08:33:16;;;;;;;47.90;11.40;;;7.20;99.90;;;;;;6244984;23;20016;-73
2023/12/16 08:35:48;;;;;;;47.13;12.73;;;7.20;99.90;;;;;;6244615;23;20042;-73
2023/12/16 08:38:13;;;;;;;43.90;12.45;;;7.20;99.90;;;;;;6244768;23;20074;-73
2023/12/16 08:40:39;;;;;;;45.83;13.43;;;7.30;99.90;;;;;;6244796;23;20012;-73
2023/12/16 08:43:05;;;;;;;42.08;12.23;;;7.30;99.90;;;;;;6244859;23;20016;-74
2023/12/16 08:45:30;;;;;;;42.85;11.80;;;7.30;99.90;;;;;;6244797;23;20012;-74
2023/12/16 08:47:56;;;;;;;53.65;12.15;;;7.30;99.90;;;;;;6244613;23;20023;-73
2023/12/16 08:50:23;;;;;;;48.15;12.48;;;7.30;99.90;;;;;;6244788;23;20531;-73
2023/12/16 08:52:52;;;;;;;51.40;12.07;;;7.30;99.90;;;;;;6244785;23;20112;-74
2023/12/16 08:55:17;;;;;;;58.65;13.00;;;7.30;99.90;;;;;;6246246;23;20099;-73
2023/12/16 08:57:43;;;;;;;42.78;11.90;;;7.30;99.90;;;;;;6244409;23;20063;-74
2023/12/16 09:00:09;;;;;;;48.55;10.68;;;7.30;99.90;;;;;;6244840;23;20355;-73
2023/12/16 09:02:36;;;;;;;47.28;11.30;;;7.30;99.90;;;;;;6246601;22;20019;-73
2023/12/16 09:05:02;;;;;;;55.97;11.68;;;7.30;99.90;;;;;;6244761;23;20020;-74
2023/12/16 09:07:27;;;;;;;50.13;12.10;;;7.30;99.90;;;;;;6244405;23;20348;-73
2023/12/16 09:09:53;;;;;;;47.03;11.95;;;7.30;99.90;;;;;;6246332;23;20020;-74
2023/12/16 09:12:19;;;;;;;61.58;12.85;;;7.30;99.90;;;;;;6246473;23;20016;-75
2023/12/16 09:14:44;;;;;;;44.33;12.55;;;7.30;99.90;;;;;;6244677;23;20012;-75
2023/12/16 09:17:10;;;;;;;48.00;11.60;;;7.40;99.90;;;;;;6243869;23;20344;-74
2023/12/16 09:19:38;;;;;;;47.95;11.98;;;7.40;99.90;;;;;;6246270;23;20012;-74
2023/12/16 09:22:04;;;;;;;47.15;11.50;;;7.40;99.90;;;;;;6246426;23;20337;-74
2023/12/16 09:24:29;;;;;;;50.50;12.35;;;7.40;99.90;;;;;;6244509;23;20448;-74
2023/12/16 09:26:55;;;;;;;55.17;11.93;;;7.40;99.90;;;;;;6241333;23;20020;-74
2023/12/16 09:29:21;;;;;;;47.05;10.65;;;7.40;99.90;;;;;;6213598;23;20025;-74
2023/12/16 09:31:47;;;;;;;53.13;11.98;;;7.40;99.90;;;;;;6213882;23;20017;-74
2023/12/16 09:34:13;;;;;;;45.20;11.77;;;7.40;99.90;;;;;;6214059;23;20017;-74
2023/12/16 09:36:39;;;;;;;44.28;11.07;;;7.40;99.90;;;;;;6214075;23;20009;-74
2023/12/16 09:39:10;;;;;;;47.42;12.82;;;7.40;99.90;;;;;;6214250;23;20318;-74
2023/12/16 09:41:42;;;;;;;47.67;10.77;;;7.40;99.90;;;;;;6214173;23;20091;-74
2023/12/16 09:44:09;;;;;;;50.25;11.23;;;7.40;99.90;;;;;;6215635;23;20020;-74
2023/12/16 09:46:36;;;;;;;51.90;11.90;;;7.40;99.90;;;;;;6216114;23;20013;-74
2023/12/16 09:49:05;;;;;;;54.53;11.43;;;7.40;99.90;;;;;;6215873;23;20085;-74
2023/12/16 09:51:30;;;;;;;49.22;11.27;;;7.40;99.90;;;;;;6214179;23;20098;-74
2023/12/16 09:53:56;;;;;;;50.58;13.77;;;7.40;99.90;;;;;;6213986;23;20438;-74
2023/12/16 09:56:22;;;;;;;48.75;12.20;;;7.40;99.90;;;;;;6214030;23;20437;-74
2023/12/16 09:58:51;;;;;;;50.63;12.93;;;7.40;99.90;;;;;;6213779;23;20112;-74
2023/12/16 10:01:17;;;;;;;58.05;12.88;;;7.50;99.90;;;;;;6215953;23;20017;-74
2023/12/16 10:03:46;;;;;;;47.83;13.55;;;7.40;99.90;;;;;;6214009;23;20052;-74
2023/12/16 10:06:12;;;;;;;53.63;12.20;;;7.40;99.90;;;;;;6213757;23;20051;-74
2023/12/16 10:08:40;;;;;;;57.17;12.10;;;7.50;99.90;;;;;;6214001;23;20021;-74
2023/12/16 10:11:06;;;;;;;60.35;13.57;;;7.50;99.90;;;;;;6214066;23;20083;-74
2023/12/16 10:13:33;;;;;;;52.25;12.10;;;7.50;99.90;;;;;;6213895;23;20027;-74
2023/12/16 10:16:00;;;;;;;52.28;12.52;;;7.50;99.90;;;;;;6213671;23;20027;-74
2023/12/16 10:18:28;;;;;;;51.95;12.60;;;7.50;99.90;;;;;;6213778;23;20016;-74
2023/12/16 10:20:57;;;;;;;44.58;11.40;;;7.50;99.90;;;;;;6214359;23;20096;-74
2023/12/16 10:23:23;;;;;;;48.08;11.85;;;7.50;99.90;;;;;;6214012;23;20021;-74
2023/12/16 10:25:50;;;;;;;38.25;11.60;;;7.50;99.90;;;;;;6213982;23;20013;-74
2023/12/16 10:28:18;;;;;;;41.30;13.02;;;7.60;99.90;;;;;;6215280;23;20548;-74
2023/12/16 10:30:44;;;;;;;39.65;10.80;;;7.60;99.90;;;;;;6215701;23;20028;-74
2023/12/16 10:33:11;;;;;;;35.15;10.82;;;7.60;99.90;;;;;;6215879;23;20013;-74
2023/12/16 10:35:37;;;;;;;36.03;10.65;;;7.60;99.90;;;;;;6215966;23;20024;-74
2023/12/16 10:38:04;;;;;;;43.17;10.38;;;7.70;99.90;;;;;;6215869;23;20016;-74
2023/12/16 10:40:33;;;;;;;40.30;11.05;;;7.70;99.90;;;;;;6217054;23;20111;-74
2023/12/16 10:42:59;;;;;;;37.45;10.90;;;7.70;99.90;;;;;;6215431;23;20087;-74
2023/12/16 10:45:25;;;;;;;48.20;11.25;;;7.80;99.90;;;;;;6215717;23;20127;-74
2023/12/16 10:47:55;;;;;;;36.60;10.73;;;7.80;99.90;;;;;;6215505;23;20027;-74
2023/12/16 10:50:25;;;;;;;37.90;10.32;;;7.90;99.90;;;;;;6215956;23;20024;-74
2023/12/16 10:52:56;;;;;;;39.25;10.23;;;8.00;99.90;;;;;;6215650;23;20031;-74
2023/12/16 10:55:27;;;;;;;38.75;10.90;;;8.00;99.90;;;;;;6217513;23;20040;-74
2023/12/16 10:57:53;;;;;;;35.63;9.93;;;8.00;99.90;;;;;;6215400;23;20151;-73
2023/12/16 11:00:22;;;;;;;37.03;9.50;;;8.00;99.90;;;;;;6215683;23;20048;-74
2023/12/16 11:03:36;;;;;;;30.30;9.27;;;8.00;99.90;;;;;;6215431;23;20344;-74
2023/12/16 11:06:12;;;;;;;29.98;8.95;;;8.10;99.90;;;;;;6129863;23;20051;-74
2023/12/16 11:08:39;;;;;;;33.60;8.95;;;8.10;99.90;;;;;;6203797;23;20013;-74
2023/12/16 11:11:06;;;;;;;31.48;9.55;;;8.10;99.90;;;;;;6214975;23;20043;-74
2023/12/16 11:13:32;;;;;;;28.80;9.90;;;8.10;99.90;;;;;;6215595;23;20012;-73
2023/12/16 11:16:13;;;;;;;29.13;9.43;;;8.20;99.90;;;;;;6215515;23;20017;-73
2023/12/16 11:18:42;;;;;;;31.40;8.43;;;8.20;99.90;;;;;;6215540;23;20032;-73
2023/12/16 11:21:12;;;;;;;34.80;10.27;;;8.20;99.90;;;;;;6215450;23;20066;-74
2023/12/16 11:23:45;;;;;;;43.50;10.18;;;8.20;99.90;;;;;;6217017;23;20452;-73
2023/12/16 11:26:11;;;;;;;;;;;8.20;99.90;;;;;;6215676;23;20021;-73
2023/12/16 11:28:41;;;;;;;34.33;8.93;;;8.30;99.90;;;;;;6215242;23;19923;-73
2023/12/16 11:31:10;;;;;;;31.77;9.00;;;8.30;99.90;;;;;;6215041;23;20024;-74
2023/12/16 11:33:47;;;;;;;35.95;9.02;;;8.30;99.90;;;;;;6217084;23;20013;-74
2023/12/16 11:36:19;;;;;;;31.98;8.80;;;8.30;99.90;;;;;;6215201;23;20016;-74
2023/12/16 11:38:54;;;;;;;26.60;7.53;;;8.30;99.90;;;;;;6212589;23;20019;-73
2023/12/16 11:41:35;;;;;;;26.65;8.80;;;8.30;99.90;;;;;;6212216;23;20051;-75
2023/12/16 11:44:04;;;;;;;37.92;9.77;;;8.40;99.90;;;;;;6130975;23;20028;-74
2023/12/16 11:46:40;;;;;;;26.55;8.40;;;8.40;99.90;;;;;;6130764;23;20024;-73
2023/12/16 11:49:11;;;;;;;27.63;9.35;;;8.40;99.90;;;;;;6130711;23;20017;-74
2023/12/16 11:51:38;;;;;;;27.23;9.45;;;8.40;99.90;;;;;;6130227;23;20017;-74
2023/12/16 11:54:05;;;;;;;27.92;9.55;;;8.40;99.90;;;;;;6130736;23;20028;-74
2023/12/16 11:56:33;;;;;;;34.88;10.10;;;8.40;99.90;;;;;;6130357;23;20041;-74
2023/12/16 11:58:59;;;;;;;26.58;9.38;;;8.40;99.90;;;;;;6157113;23;20014;-74
2023/12/16 12:01:26;;;;;;;37.67;9.95;;;8.50;99.90;;;;;;6130661;23;20080;-74
2023/12/16 12:03:55;;;;;;;28.92;10.00;;;8.50;99.90;;;;;;6130344;23;20025;-73
2023/12/16 12:06:21;;;;;;;26.27;10.30;;;8.50;99.90;;;;;;6130559;23;20021;-74
2023/12/16 12:08:47;;;;;;;32.00;9.90;;;8.50;99.90;;;;;;6130544;23;20022;-74
2023/12/16 12:11:17;;;;;;;26.98;8.75;;;8.50;99.90;;;;;;6130489;23;20484;-74
2023/12/16 12:13:45;;;;;;;22.75;9.63;;;8.60;99.90;;;;;;6130121;23;20100;-74
2023/12/16 12:16:13;;;;;;;25.63;9.20;;;8.60;99.90;;;;;;6130402;23;20037;-74
2023/12/16 12:18:40;;;;;;;23.92;9.00;;;8.60;99.90;;;;;;6130397;23;20017;-74
2023/12/16 12:21:07;;;;;;;25.08;8.98;;;8.60;99.90;;;;;;6130234;23;20096;-74
2023/12/16 12:23:33;;;;;;;29.77;10.10;;;8.70;99.90;;;;;;6130133;23;20022;-74
2023/12/16 12:26:05;;;;;;;26.50;9.43;;;8.70;99.90;;;;;;6156592;23;20312;-74
2023/12/16 12:28:30;;;;;;;27.23;9.23;;;8.70;99.90;;;;;;6130279;23;20072;-73
2023/12/16 12:31:09;;;;;;;30.45;9.52;;;8.70;99.90;;;;;;6130227;23;20350;-74
2023/12/16 12:33:35;;;;;;;28.67;9.88;;;8.70;99.90;;;;;;6130169;23;20096;-74
2023/12/16 12:36:02;;;;;;;25.38;8.52;;;8.70;99.90;;;;;;6130336;23;20018;-74
2023/12/16 12:38:29;;;;;;;28.30;8.45;;;8.80;99.90;;;;;;6156310;23;20021;-74
2023/12/16 12:40:59;;;;;;;30.50;9.73;;;8.80;99.90;;;;;;6130047;23;20013;-74
2023/12/16 12:43:31;;;;;;;25.85;8.57;;;8.80;99.90;;;;;;6130056;23;20017;-74
2023/12/16 12:46:12;;;;;;;24.38;9.15;;;8.80;99.90;;;;;;6130272;23;20026;-74
2023/12/16 12:48:39;;;;;;;28.10;8.60;;;8.80;99.90;;;;;;6129998;23;20014;-74